createdAt,value
2018-03-25T00:04:29.702Z,17.40
2018-03-25T00:09:20.597Z,16.80
2018-03-25T00:14:12.290Z,16.87
2018-03-25T00:19:03.179Z,17.77
2018-03-25T00:23:54.136Z,18.13
2018-03-25T00:28:45.045Z,16.77
2018-03-25T00:33:35.991Z,17.20
2018-03-25T00:38:26.865Z,17.40
2018-03-25T00:43:17.823Z,16.33
2018-03-25T00:48:08.714Z,17.50
2018-03-25T00:52:59.817Z,17.53
2018-03-25T00:57:51.462Z,16.83
2018-03-25T01:02:42.344Z,18.07
2018-03-25T01:07:34.738Z,16.83
2018-03-25T01:12:25.652Z,17.30
2018-03-25T01:17:17.398Z,19.20
2018-03-25T01:22:09.036Z,20.40
2018-03-25T01:27:00.691Z,19.27
2018-03-25T01:31:51.576Z,21.37
2018-03-25T01:36:43.221Z,19.20
2018-03-25T01:41:34.124Z,18.70
2018-03-25T01:46:25.056Z,19.53
2018-03-25T01:51:15.975Z,18.90
2018-03-25T01:56:06.869Z,18.70
2018-03-25T02:00:57.834Z,21.57
2018-03-25T02:05:48.761Z,19.17
2018-03-25T02:10:39.683Z,20.47
2018-03-25T02:15:30.607Z,20.73
2018-03-25T02:20:21.558Z,21.00
2018-03-25T02:25:13.208Z,19.20
2018-03-25T02:30:04.845Z,19.20
2018-03-25T02:34:56.563Z,20.83
2018-03-25T02:39:47.465Z,20.53
2018-03-25T02:44:38.392Z,19.73
2018-03-25T02:49:29.299Z,20.70
2018-03-25T02:54:20.205Z,20.10
2018-03-25T02:59:11.220Z,19.87
2018-03-25T03:04:02.135Z,20.40
2018-03-25T03:08:53.824Z,20.67
2018-03-25T03:13:44.755Z,21.50
2018-03-25T03:18:35.645Z,20.00
2018-03-25T03:23:26.732Z,19.13
2018-03-25T03:28:17.648Z,20.70
2018-03-25T03:33:09.341Z,19.60
2018-03-25T03:38:00.273Z,20.20
2018-03-25T03:42:51.179Z,20.47
2018-03-25T03:47:42.111Z,20.20
2018-03-25T03:52:33.041Z,21.30
2018-03-25T03:57:23.920Z,19.97
2018-03-25T04:02:14.888Z,19.97
2018-03-25T04:07:05.798Z,20.10
2018-03-25T04:11:56.747Z,18.93
2018-03-25T04:16:47.688Z,20.90
2018-03-25T04:21:38.586Z,20.03
2018-03-25T04:26:29.494Z,21.07
2018-03-25T04:31:20.451Z,19.80
2018-03-25T04:36:11.372Z,21.33
2018-03-25T04:41:02.290Z,20.63
2018-03-25T04:45:53.194Z,20.20
2018-03-25T04:50:44.145Z,19.80
2018-03-25T04:55:35.060Z,19.17
2018-03-25T05:00:25.975Z,18.90
2018-03-25T05:05:16.863Z,18.30
2018-03-25T05:10:08.529Z,19.33
2018-03-25T05:15:00.207Z,18.93
2018-03-25T05:19:51.135Z,18.37
2018-03-25T05:24:42.025Z,19.83
2018-03-25T05:29:32.986Z,19.53
2018-03-25T05:34:23.869Z,19.40
2018-03-25T05:39:14.827Z,17.50
2018-03-25T05:44:05.726Z,19.47
2018-03-25T05:48:56.650Z,19.70
2018-03-25T05:53:47.543Z,18.10
2018-03-25T05:58:38.472Z,17.80
2018-03-25T06:03:29.435Z,19.10
2018-03-25T06:08:20.344Z,19.60
2018-03-25T06:13:11.291Z,18.00
2018-03-25T06:18:02.204Z,18.70
2018-03-25T06:22:53.096Z,19.50
2018-03-25T06:27:44.054Z,17.37
2018-03-25T06:32:34.968Z,21.70
2018-03-25T06:37:25.897Z,19.60
2018-03-25T06:42:16.796Z,23.13
2018-03-25T06:47:07.695Z,19.93
2018-03-25T06:51:59.396Z,21.10
2018-03-25T06:56:50.323Z,17.30
2018-03-25T07:01:41.231Z,19.87
2018-03-25T07:06:32.176Z,20.33
2018-03-25T07:11:23.525Z,19.20
2018-03-25T07:16:15.180Z,20.77
2018-03-25T07:21:06.854Z,20.70
2018-03-25T07:25:57.775Z,19.93
2018-03-25T07:30:48.711Z,22.10
2018-03-25T07:35:39.629Z,21.73
2018-03-25T07:40:30.558Z,22.30
2018-03-25T07:45:21.467Z,24.93
2018-03-25T07:50:12.402Z,23.20
2018-03-25T07:55:03.248Z,24.20
2018-03-25T07:59:54.162Z,23.73
2018-03-25T08:04:45.078Z,24.10
2018-03-25T08:09:36.007Z,24.70
2018-03-25T08:14:26.914Z,25.60
2018-03-25T08:19:17.860Z,23.20
2018-03-25T08:24:08.767Z,24.10
2018-03-25T08:28:59.732Z,24.10
2018-03-25T08:33:51.427Z,22.67
2018-03-25T08:38:43.114Z,20.60
2018-03-25T08:43:34.823Z,19.57
2018-03-25T08:48:25.768Z,18.40
2018-03-25T08:53:18.219Z,20.90
2018-03-25T08:58:09.151Z,18.43
2018-03-25T09:03:00.092Z,19.67
2018-03-25T09:07:51.104Z,19.20
2018-03-25T09:12:41.991Z,20.40
2018-03-25T09:17:32.960Z,23.90
2018-03-25T09:22:24.631Z,21.27
2018-03-25T09:27:16.320Z,20.47
2018-03-25T09:32:07.230Z,19.60
2018-03-25T09:36:58.121Z,19.80
2018-03-25T09:41:49.769Z,25.17
2018-03-25T09:46:40.752Z,22.30
2018-03-25T09:51:31.643Z,21.00
2018-03-25T09:56:22.544Z,20.73
2018-03-25T10:01:14.389Z,19.70
2018-03-25T10:06:05.264Z,16.80
2018-03-25T10:10:56.162Z,16.40
2018-03-25T10:15:47.903Z,18.80
2018-03-25T10:20:38.836Z,17.70
2018-03-25T10:25:29.766Z,17.47
2018-03-25T10:30:20.684Z,19.63
2018-03-25T10:35:11.678Z,17.50
2018-03-25T10:40:02.587Z,19.23
2018-03-25T10:44:54.226Z,15.97
2018-03-25T10:49:45.116Z,16.33
2018-03-25T10:54:36.015Z,16.30
2018-03-25T10:59:26.922Z,19.20
2018-03-25T11:04:17.808Z,19.40
2018-03-25T11:09:09.460Z,19.47
2018-03-25T11:14:00.492Z,20.70
2018-03-25T11:18:51.377Z,30.30
2018-03-25T11:23:43.005Z,29.03
2018-03-25T11:28:33.899Z,30.10
2018-03-25T11:33:24.836Z,29.50
2018-03-25T11:38:15.731Z,29.80
2018-03-25T11:43:06.672Z,30.17
2018-03-25T11:47:57.564Z,29.60
2018-03-25T11:52:48.530Z,29.60
2018-03-25T11:57:39.477Z,30.07
2018-03-25T12:02:30.380Z,28.90
2018-03-25T12:07:22.020Z,30.30
2018-03-25T12:12:12.961Z,28.93
2018-03-25T12:17:03.863Z,27.63
2018-03-25T12:21:54.766Z,29.60
2018-03-25T12:26:45.698Z,30.40
2018-03-25T12:31:36.626Z,27.63
2018-03-25T12:36:27.525Z,31.30
2018-03-25T12:41:18.413Z,26.87
2018-03-25T12:46:10.122Z,28.40
2018-03-25T12:51:01.032Z,22.50
2018-03-25T12:55:51.939Z,20.27
2018-03-25T13:00:42.846Z,21.30
2018-03-25T13:05:33.760Z,19.40
2018-03-25T13:10:24.648Z,21.27
2018-03-25T13:15:15.646Z,18.97
2018-03-25T13:20:06.566Z,20.07
2018-03-25T13:24:57.466Z,19.73
2018-03-25T13:29:48.433Z,19.73
2018-03-25T13:34:39.454Z,21.10
2018-03-25T13:39:30.341Z,21.50
2018-03-25T13:44:21.349Z,23.60
2018-03-25T13:49:13.043Z,23.43
2018-03-25T13:54:04.117Z,23.10
2018-03-25T13:58:55.750Z,24.73
2018-03-25T14:03:46.646Z,24.53
2018-03-25T14:08:37.746Z,25.63
2018-03-25T14:13:28.718Z,25.27
2018-03-25T14:18:19.732Z,26.30
2018-03-25T14:23:10.805Z,24.80
2018-03-25T14:28:01.668Z,26.07
2018-03-25T14:32:52.613Z,25.87
2018-03-25T14:37:43.529Z,24.90
2018-03-25T14:42:34.433Z,26.77
2018-03-25T14:47:25.360Z,25.73
2018-03-25T14:52:16.312Z,25.37
2018-03-25T14:57:07.366Z,24.73
2018-03-25T15:01:59.014Z,27.43
2018-03-25T15:06:49.885Z,25.93
2018-03-25T15:11:40.816Z,26.43
2018-03-25T15:16:31.696Z,25.50
2018-03-25T15:21:22.592Z,26.33
2018-03-25T15:26:14.250Z,26.07
2018-03-25T15:31:05.952Z,26.97
2018-03-25T15:35:56.960Z,26.60
2018-03-25T15:40:47.854Z,25.00
2018-03-25T15:45:38.788Z,27.03
2018-03-25T15:50:29.752Z,26.47
2018-03-25T15:55:20.691Z,25.13
2018-03-25T16:00:11.604Z,25.37
2018-03-25T16:05:02.481Z,26.00
2018-03-25T16:09:54.107Z,25.00
2018-03-25T16:14:44.995Z,23.10
2018-03-25T16:19:35.926Z,25.07
2018-03-25T16:24:26.825Z,26.30
2018-03-25T16:29:17.733Z,23.13
2018-03-25T16:34:09.368Z,24.67
2018-03-25T16:39:01.006Z,26.20
2018-03-25T16:43:52.643Z,24.40
2018-03-25T16:48:44.295Z,26.13
2018-03-25T16:53:35.931Z,25.13
2018-03-25T16:58:27.578Z,25.97
2018-03-25T17:03:18.500Z,25.37
2018-03-25T17:08:10.260Z,24.83
2018-03-25T17:13:01.242Z,25.70
2018-03-25T17:17:52.161Z,23.80
2018-03-25T17:22:43.100Z,23.87
2018-03-25T17:27:34.019Z,26.07
2018-03-25T17:32:25.002Z,25.07
2018-03-25T17:37:16.641Z,26.67
2018-03-25T17:42:08.303Z,24.20
2018-03-25T17:46:59.223Z,27.10
2018-03-25T17:51:50.129Z,24.10
2018-03-25T17:56:41.776Z,24.40
2018-03-25T18:01:33.435Z,22.53
2018-03-25T18:06:24.336Z,25.37
2018-03-25T18:11:15.978Z,25.63
2018-03-25T18:16:07.637Z,24.60
2018-03-25T18:20:58.602Z,23.20
2018-03-25T18:25:56.552Z,21.50
2018-03-25T18:30:47.414Z,24.37
2018-03-25T18:35:38.310Z,22.47
2018-03-25T18:40:29.232Z,24.83
2018-03-25T18:45:20.168Z,22.63
2018-03-25T18:50:11.154Z,20.90
2018-03-25T18:55:02.068Z,21.63
2018-03-25T18:59:53.097Z,20.00
2018-03-25T19:04:44.356Z,20.90
2018-03-25T19:09:35.641Z,22.03
2018-03-25T19:14:26.641Z,20.37
2018-03-25T19:19:18.344Z,19.97
2018-03-25T19:24:09.251Z,19.43
2018-03-25T19:29:00.180Z,19.13
2018-03-25T19:33:51.075Z,19.83
2018-03-25T19:38:42.767Z,19.63
2018-03-25T19:43:33.645Z,19.80
2018-03-25T19:48:25.316Z,18.00
2018-03-25T19:53:16.233Z,18.00
2018-03-25T19:58:07.174Z,18.57
2018-03-25T20:02:58.095Z,18.67
2018-03-25T20:07:49.023Z,17.43
2018-03-25T20:12:39.956Z,17.43
2018-03-25T20:22:49.381Z,21.52
2018-03-25T20:27:40.271Z,18.63
2018-03-25T20:32:31.176Z,18.03
2018-03-25T20:37:22.067Z,18.20
2018-03-25T20:42:12.956Z,18.10
2018-03-25T20:47:03.856Z,19.00
2018-03-25T20:51:58.265Z,18.77
2018-03-25T20:57:01.329Z,20.10
2018-03-25T21:01:56.833Z,20.27
2018-03-25T21:06:47.779Z,19.13
2018-03-25T21:11:39.415Z,17.83
2018-03-25T21:16:31.074Z,18.30
2018-03-25T21:21:21.966Z,19.13
2018-03-25T21:26:12.877Z,18.50
2018-03-25T21:31:03.821Z,17.60
2018-03-25T21:35:54.660Z,17.17
2018-03-25T21:40:45.573Z,16.53
2018-03-25T21:45:36.466Z,17.73
2018-03-25T21:50:27.362Z,18.57
2018-03-25T21:55:19.003Z,17.30
2018-03-25T22:00:09.912Z,16.43
2018-03-25T22:05:01.533Z,17.70
2018-03-25T22:09:53.119Z,16.20
2018-03-25T22:14:44.040Z,16.77
2018-03-25T22:19:34.970Z,18.07
2018-03-25T22:24:25.923Z,17.13
2018-03-25T22:29:16.884Z,17.50
2018-03-25T22:34:08.545Z,17.10
2018-03-25T22:38:59.436Z,16.37
2018-03-25T22:43:51.075Z,16.40
2018-03-25T22:48:42.811Z,16.07
2018-03-25T22:53:34.481Z,17.77
2018-03-25T22:58:25.407Z,14.73
2018-03-25T23:03:16.467Z,16.50
2018-03-25T23:08:07.355Z,16.60
2018-03-25T23:12:58.263Z,16.00
2018-03-25T23:17:49.899Z,17.67
2018-03-25T23:22:40.827Z,16.40
2018-03-25T23:27:31.713Z,15.93
2018-03-25T23:32:22.598Z,15.00
2018-03-25T23:37:14.235Z,18.20
2018-03-25T23:42:05.879Z,16.53
2018-03-25T23:46:56.780Z,16.43
2018-03-25T23:51:47.671Z,16.07
2018-03-25T23:56:38.565Z,14.13
